Wirral, United Kingdom
Current Conditions -  °F | °C
As of 6:20 PM on Thursday 30 Oct 2014 (Local Time) from EGGP Reporting Station
Scattered Clouds Scattered Clouds  
Wind Chill: 61°   Ceiling: Unl
Heat Index: 61°   Visibility: 6mi
Dew Point: 57°   Wind: 12mph
Humidity: 88%   Direction: 160°SSE
Pressure: 29.94"   Gusts: NA
Location:  53.4°N, 3.11°W
Report Text: EGGP 301820Z 16010KT 9999 SCT037 16/14 Q1014
Loading
Personal Weather Stations






























Interactive Weather Map
Tropical Storm Tracking
New forecast layout! Learn more

10-Day Weather Forecast

Advertisements
Track Severe Weather on mobile